createdAt,value
2018-08-06T00:00:58.007Z,1.70
2018-08-06T00:01:58.632Z,1.70
2018-08-06T00:02:58.015Z,1.60
2018-08-06T00:03:58.036Z,1.40
2018-08-06T00:04:58.037Z,1.40
2018-08-06T00:05:58.038Z,1.80
2018-08-06T00:06:58.046Z,1.60
2018-08-06T00:07:58.044Z,1.60
2018-08-06T00:08:58.060Z,1.70
2018-08-06T00:09:58.064Z,1.90
2018-08-06T00:10:58.063Z,1.60
2018-08-06T00:11:58.055Z,1.80
2018-08-06T00:12:58.068Z,1.60
2018-08-06T00:13:58.077Z,1.60
2018-08-06T00:14:58.123Z,1.90
2018-08-06T00:15:58.068Z,1.80
2018-08-06T00:16:58.079Z,1.60
2018-08-06T00:17:58.080Z,1.70
2018-08-06T00:18:58.082Z,1.90
2018-08-06T00:19:58.084Z,1.90
2018-08-06T00:20:58.092Z,1.90
2018-08-06T00:21:58.098Z,2.00
2018-08-06T00:22:58.095Z,1.70
2018-08-06T00:23:58.093Z,1.60
2018-08-06T00:24:58.638Z,1.70
2018-08-06T00:25:58.107Z,1.80
2018-08-06T00:26:58.127Z,1.70
2018-08-06T00:27:58.123Z,1.40
2018-08-06T00:28:58.113Z,1.70
2018-08-06T00:29:58.138Z,1.60
2018-08-06T00:30:58.141Z,1.70
2018-08-06T00:31:58.115Z,1.60
2018-08-06T00:32:58.131Z,1.80
2018-08-06T00:33:58.133Z,1.80
2018-08-06T00:34:58.650Z,1.70
2018-08-06T00:35:58.140Z,1.70
2018-08-06T00:36:58.153Z,1.80
2018-08-06T00:37:58.142Z,1.80
2018-08-06T00:38:58.151Z,1.70
2018-08-06T00:39:58.145Z,2.00
2018-08-06T00:40:58.155Z,1.80
2018-08-06T00:41:58.160Z,1.60
2018-08-06T00:42:58.650Z,1.90
2018-08-06T00:43:58.171Z,1.90
2018-08-06T00:44:58.158Z,1.80
2018-08-06T00:45:58.166Z,1.90
2018-08-06T00:46:58.166Z,1.90
2018-08-06T00:47:58.171Z,1.70
2018-08-06T00:48:58.171Z,1.80
2018-08-06T00:49:58.183Z,1.70
2018-08-06T00:50:58.226Z,1.90
2018-08-06T00:51:58.192Z,1.70
2018-08-06T00:52:58.222Z,1.70
2018-08-06T00:53:58.204Z,1.80
2018-08-06T00:54:58.193Z,1.60
2018-08-06T00:55:58.247Z,1.70
2018-08-06T00:56:58.208Z,1.80
2018-08-06T00:57:58.201Z,1.80
2018-08-06T00:58:58.207Z,1.90
2018-08-06T00:59:58.211Z,1.70
2018-08-06T01:00:58.211Z,1.80
2018-08-06T01:01:58.220Z,1.90
2018-08-06T01:02:58.231Z,2.00
2018-08-06T01:03:58.239Z,2.00
2018-08-06T01:04:58.225Z,2.10
2018-08-06T01:05:58.219Z,2.10
2018-08-06T01:06:58.244Z,2.10
2018-08-06T01:07:58.237Z,2.00
2018-08-06T01:08:58.284Z,2.10
2018-08-06T01:09:58.251Z,2.10
2018-08-06T01:10:58.249Z,2.00
2018-08-06T01:11:58.261Z,2.00
2018-08-06T01:12:58.237Z,1.90
2018-08-06T01:13:58.274Z,2.00
2018-08-06T01:14:58.251Z,2.00
2018-08-06T01:15:58.262Z,2.30
2018-08-06T01:16:58.269Z,2.00
2018-08-06T01:17:58.267Z,1.90
2018-08-06T01:18:58.390Z,2.10
2018-08-06T01:19:58.275Z,1.90
2018-08-06T01:20:58.280Z,2.10
2018-08-06T01:21:58.282Z,1.80
2018-08-06T01:22:58.291Z,1.90
2018-08-06T01:23:58.287Z,1.90
2018-08-06T01:24:58.296Z,2.00
2018-08-06T01:25:58.301Z,1.90
2018-08-06T01:26:58.308Z,2.10
2018-08-06T01:27:58.309Z,2.10
2018-08-06T01:28:58.305Z,2.20
2018-08-06T01:29:58.310Z,2.00
2018-08-06T01:30:58.315Z,1.80
2018-08-06T01:31:58.321Z,1.90
2018-08-06T01:32:58.315Z,2.00
2018-08-06T01:33:58.324Z,1.80
2018-08-06T01:34:58.333Z,2.00
2018-08-06T01:35:58.321Z,1.80
2018-08-06T01:36:58.456Z,2.10
2018-08-06T01:37:58.338Z,2.10
2018-08-06T01:38:58.337Z,2.10
2018-08-06T01:39:58.341Z,2.00
2018-08-06T01:40:58.342Z,2.10
2018-08-06T01:41:58.341Z,2.10
2018-08-06T01:42:58.351Z,1.90
2018-08-06T01:43:58.358Z,2.10
2018-08-06T01:44:58.354Z,2.00
2018-08-06T01:45:58.357Z,1.90
2018-08-06T01:46:58.361Z,2.00
2018-08-06T01:47:58.367Z,2.00
2018-08-06T01:48:58.371Z,1.80
2018-08-06T01:49:58.358Z,2.10
2018-08-06T01:50:58.370Z,1.90
2018-08-06T01:51:58.376Z,2.20
2018-08-06T01:52:58.374Z,2.10
2018-08-06T01:53:58.379Z,2.20
2018-08-06T01:54:58.385Z,1.90
2018-08-06T01:55:58.390Z,2.00
2018-08-06T01:56:58.383Z,1.70
2018-08-06T01:57:58.414Z,2.10
2018-08-06T01:58:58.400Z,1.90
2018-08-06T01:59:59.178Z,2.30
2018-08-06T02:00:58.403Z,2.00
2018-08-06T02:01:58.404Z,2.00
2018-08-06T02:02:58.419Z,1.80
2018-08-06T02:03:58.408Z,1.80
2018-08-06T02:04:58.417Z,2.20
2018-08-06T02:05:58.422Z,2.30
2018-08-06T02:06:58.427Z,2.10
2018-08-06T02:07:58.433Z,2.20
2018-08-06T02:08:58.434Z,2.10
2018-08-06T02:09:58.487Z,2.00
2018-08-06T02:10:58.433Z,1.70
2018-08-06T02:11:58.440Z,2.20
2018-08-06T02:12:58.423Z,2.10
2018-08-06T02:13:58.437Z,2.00
2018-08-06T02:14:58.461Z,2.20
2018-08-06T02:15:58.446Z,2.20
2018-08-06T02:16:58.471Z,2.20
2018-08-06T02:17:58.465Z,2.10
2018-08-06T02:18:58.459Z,2.40
2018-08-06T02:19:58.457Z,2.20
2018-08-06T02:20:58.460Z,2.10
2018-08-06T02:21:58.469Z,2.10
2018-08-06T02:22:58.518Z,2.30
2018-08-06T02:23:58.472Z,2.10
2018-08-06T02:24:58.481Z,2.20
2018-08-06T02:25:58.478Z,2.30
2018-08-06T02:26:58.484Z,2.30
2018-08-06T02:27:58.599Z,2.20
2018-08-06T02:28:58.489Z,2.40
2018-08-06T02:29:58.493Z,2.00
2018-08-06T02:30:58.492Z,2.00
2018-08-06T02:31:58.499Z,2.10
2018-08-06T02:32:58.504Z,2.10
2018-08-06T02:33:58.498Z,2.20
2018-08-06T02:34:58.501Z,2.00
2018-08-06T02:35:58.506Z,2.60
2018-08-06T02:36:58.515Z,2.20
2018-08-06T02:37:58.521Z,2.30
2018-08-06T02:38:58.534Z,2.50
2018-08-06T02:39:58.516Z,2.10
2018-08-06T02:40:58.563Z,2.20
2018-08-06T02:41:58.518Z,2.30
2018-08-06T02:42:58.530Z,2.40
2018-08-06T02:43:58.537Z,2.10
2018-08-06T02:44:58.532Z,2.20
2018-08-06T02:45:58.580Z,2.30
2018-08-06T02:46:58.544Z,2.30
2018-08-06T02:47:58.593Z,2.30
2018-08-06T02:48:58.547Z,2.20
2018-08-06T02:49:58.559Z,2.10
2018-08-06T02:50:58.667Z,2.40
2018-08-06T02:51:58.562Z,2.20
2018-08-06T02:52:58.558Z,2.30
2018-08-06T02:53:58.579Z,2.10
2018-08-06T02:54:58.564Z,2.30
2018-08-06T02:55:58.564Z,2.30
2018-08-06T02:56:58.573Z,2.40
2018-08-06T02:57:58.569Z,2.40
2018-08-06T02:58:58.567Z,2.60
2018-08-06T02:59:58.578Z,2.60
2018-08-06T03:00:58.581Z,2.30
2018-08-06T03:01:58.584Z,2.50
2018-08-06T03:02:58.591Z,2.00
2018-08-06T03:03:58.673Z,2.20
2018-08-06T03:04:58.591Z,2.30
2018-08-06T03:05:58.590Z,2.20
2018-08-06T03:06:58.599Z,2.40
2018-08-06T03:07:58.604Z,2.60
2018-08-06T03:08:58.623Z,2.40
2018-08-06T03:09:58.632Z,2.10
2018-08-06T03:10:58.608Z,2.30
2018-08-06T03:11:58.614Z,2.30
2018-08-06T03:12:58.618Z,2.30
2018-08-06T03:13:58.617Z,2.60
2018-08-06T03:14:58.622Z,2.40
2018-08-06T03:15:58.620Z,2.70
2018-08-06T03:16:58.696Z,2.30
2018-08-06T03:17:58.631Z,2.20
2018-08-06T03:18:58.635Z,2.30
2018-08-06T03:19:58.686Z,2.50
2018-08-06T03:20:58.651Z,2.20
2018-08-06T03:21:58.700Z,2.40
2018-08-06T03:22:58.644Z,2.40
2018-08-06T03:23:58.650Z,2.20
2018-08-06T03:24:58.651Z,2.50
2018-08-06T03:25:58.660Z,2.50
2018-08-06T03:26:58.657Z,2.50
2018-08-06T03:27:58.661Z,2.30
2018-08-06T03:28:58.662Z,2.40
2018-08-06T03:29:58.668Z,2.50
2018-08-06T03:30:58.671Z,2.90
2018-08-06T03:31:58.678Z,2.60
2018-08-06T03:32:58.680Z,2.60
2018-08-06T03:33:58.679Z,2.80
2018-08-06T03:34:58.751Z,2.80
2018-08-06T03:35:58.683Z,2.40
2018-08-06T03:36:58.684Z,2.60
2018-08-06T03:37:58.688Z,2.50
2018-08-06T03:38:58.705Z,2.20
2018-08-06T03:39:58.690Z,2.50
2018-08-06T03:40:58.688Z,2.70
2018-08-06T03:41:58.705Z,2.30
2018-08-06T03:42:58.704Z,2.50
2018-08-06T03:43:58.706Z,2.70
2018-08-06T03:44:59.219Z,2.60
2018-08-06T03:45:58.768Z,2.40
2018-08-06T03:46:58.764Z,2.80
2018-08-06T03:47:58.721Z,2.80
2018-08-06T03:48:58.728Z,2.50
2018-08-06T03:49:58.770Z,2.70
2018-08-06T03:50:58.749Z,2.70
2018-08-06T03:51:58.791Z,2.60
2018-08-06T03:52:58.777Z,3.00
2018-08-06T03:53:58.770Z,3.00
2018-08-06T03:54:58.747Z,3.10
2018-08-06T03:55:58.731Z,2.80
2018-08-06T03:56:58.745Z,3.00
2018-08-06T03:57:58.788Z,2.90
2018-08-06T03:58:58.750Z,2.80
2018-08-06T03:59:58.749Z,2.90
2018-08-06T04:00:58.766Z,2.80
2018-08-06T04:01:58.758Z,2.50
2018-08-06T04:02:58.762Z,3.00
2018-08-06T04:03:58.763Z,2.90
2018-08-06T04:04:58.771Z,2.60
2018-08-06T04:05:58.773Z,2.90
2018-08-06T04:06:58.772Z,2.90
2018-08-06T04:07:58.764Z,2.90
2018-08-06T04:08:58.779Z,3.00
2018-08-06T04:09:58.789Z,2.80
2018-08-06T04:10:58.774Z,2.50
2018-08-06T04:11:58.788Z,2.80
2018-08-06T04:12:58.788Z,2.70
2018-08-06T04:13:58.799Z,2.80
2018-08-06T04:14:58.794Z,2.70
2018-08-06T04:15:59.732Z,3.00
2018-08-06T04:16:58.799Z,2.60
2018-08-06T04:17:58.808Z,2.90
2018-08-06T04:18:58.815Z,2.70
2018-08-06T04:19:58.825Z,2.80
2018-08-06T04:20:58.815Z,2.90
2018-08-06T04:21:58.810Z,2.90
2018-08-06T04:22:58.819Z,2.80
2018-08-06T04:23:58.821Z,2.80
2018-08-06T04:24:58.827Z,3.00
2018-08-06T04:25:58.833Z,3.00
2018-08-06T04:26:58.829Z,2.80
2018-08-06T04:27:58.836Z,2.80
2018-08-06T04:28:58.886Z,2.60
2018-08-06T04:29:58.841Z,3.20
2018-08-06T04:30:58.843Z,2.90
2018-08-06T04:31:58.848Z,2.70
2018-08-06T04:32:58.901Z,3.20
2018-08-06T04:33:58.852Z,2.80
2018-08-06T04:34:58.864Z,3.00
2018-08-06T04:35:58.848Z,3.10
2018-08-06T04:36:58.858Z,2.90
2018-08-06T04:37:58.863Z,3.40
2018-08-06T04:38:58.931Z,2.90
2018-08-06T04:39:58.874Z,2.60
2018-08-06T04:40:58.875Z,2.80
2018-08-06T04:41:58.877Z,3.50
2018-08-06T04:42:58.882Z,2.80
2018-08-06T04:43:58.880Z,3.10
2018-08-06T04:44:58.884Z,2.90
2018-08-06T04:45:58.975Z,3.00
2018-08-06T04:46:58.923Z,2.90
2018-08-06T04:47:58.926Z,3.30
2018-08-06T04:48:58.937Z,3.30
2018-08-06T04:49:58.932Z,3.20
2018-08-06T04:50:58.961Z,3.40
2018-08-06T04:51:58.942Z,3.00
2018-08-06T04:52:58.901Z,3.00
2018-08-06T04:53:58.907Z,3.50
2018-08-06T04:54:58.915Z,3.00
2018-08-06T04:55:58.919Z,3.30
2018-08-06T04:56:58.916Z,2.80
2018-08-06T04:57:58.937Z,3.30
2018-08-06T04:58:58.921Z,3.20
2018-08-06T04:59:58.941Z,3.10
2018-08-06T05:00:58.932Z,3.00
2018-08-06T05:01:58.928Z,3.10
2018-08-06T05:02:58.935Z,3.00
2018-08-06T05:03:58.953Z,3.00
2018-08-06T05:04:58.945Z,3.20
2018-08-06T05:05:58.948Z,2.50
2018-08-06T05:06:59.118Z,2.90
2018-08-06T05:07:58.951Z,3.00
2018-08-06T05:08:58.957Z,2.90
2018-08-06T05:09:58.958Z,3.00
2018-08-06T05:10:58.973Z,3.20
2018-08-06T05:11:58.975Z,2.90
2018-08-06T05:12:58.962Z,3.30
2018-08-06T05:13:58.991Z,3.10
2018-08-06T05:14:58.959Z,3.00
2018-08-06T05:15:58.958Z,3.30
2018-08-06T05:16:58.980Z,3.10
2018-08-06T05:17:58.984Z,2.90
2018-08-06T05:18:58.979Z,3.10
2018-08-06T05:19:59.131Z,3.30
2018-08-06T05:20:59.005Z,3.10
2018-08-06T05:21:58.995Z,3.30
2018-08-06T05:22:59.000Z,2.90
2018-08-06T05:23:58.998Z,3.00
2018-08-06T05:24:59.011Z,3.10
2018-08-06T05:25:59.002Z,3.10
2018-08-06T05:26:59.009Z,3.30
2018-08-06T05:27:59.009Z,2.80
2018-08-06T05:28:59.018Z,2.80
2018-08-06T05:29:59.016Z,2.60
2018-08-06T05:30:59.021Z,3.10
2018-08-06T05:31:59.038Z,3.30
2018-08-06T05:32:59.758Z,3.00
2018-08-06T05:33:59.028Z,2.70
2018-08-06T05:34:59.030Z,2.80
2018-08-06T05:35:59.042Z,3.50
2018-08-06T05:36:59.038Z,2.90
2018-08-06T05:37:59.046Z,3.20
2018-08-06T05:38:59.039Z,2.70
2018-08-06T05:39:59.065Z,2.70
2018-08-06T05:40:59.062Z,2.80
2018-08-06T05:41:59.045Z,3.10
2018-08-06T05:42:59.059Z,3.00
2018-08-06T05:43:59.056Z,3.00
2018-08-06T05:44:59.130Z,2.80
2018-08-06T05:45:59.080Z,3.10
2018-08-06T05:46:59.070Z,3.10
2018-08-06T05:47:59.127Z,2.70
2018-08-06T05:48:59.142Z,2.90
2018-08-06T05:49:59.080Z,3.00
2018-08-06T05:50:59.094Z,3.00
2018-08-06T05:51:59.089Z,2.70
2018-08-06T05:52:59.142Z,2.80
2018-08-06T05:53:59.097Z,2.80
2018-08-06T05:54:59.094Z,2.70
2018-08-06T05:55:59.103Z,2.60
2018-08-06T05:56:59.108Z,3.00
2018-08-06T05:57:59.113Z,2.80
2018-08-06T05:58:59.119Z,2.70
2018-08-06T05:59:59.141Z,2.60
2018-08-06T06:00:59.774Z,2.20
2018-08-06T06:01:59.135Z,2.40
2018-08-06T06:02:59.146Z,2.80
2018-08-06T06:03:59.160Z,2.90
2018-08-06T06:04:59.162Z,2.80
2018-08-06T06:05:59.159Z,2.50
2018-08-06T06:06:59.154Z,2.80
2018-08-06T06:07:59.169Z,2.50
2018-08-06T06:08:59.170Z,2.80
2018-08-06T06:09:59.345Z,2.50
2018-08-06T06:10:59.203Z,2.60
2018-08-06T06:11:59.190Z,2.50
2018-08-06T06:12:59.192Z,2.40
2018-08-06T06:13:59.299Z,2.70
2018-08-06T06:14:59.210Z,2.90
2018-08-06T06:15:59.216Z,2.40
2018-08-06T06:16:59.234Z,2.40
2018-08-06T06:17:59.244Z,2.50
2018-08-06T06:18:59.242Z,2.50
2018-08-06T06:19:59.258Z,2.40
2018-08-06T06:20:59.297Z,2.40
2018-08-06T06:21:59.262Z,2.50
2018-08-06T06:22:59.272Z,2.80
2018-08-06T06:23:59.275Z,2.50
2018-08-06T06:24:59.289Z,2.70
2018-08-06T06:25:59.316Z,2.80
2018-08-06T06:26:59.365Z,2.30
2018-08-06T06:27:59.319Z,2.70
2018-08-06T06:28:59.334Z,2.90
2018-08-06T06:29:59.343Z,2.40
2018-08-06T06:30:59.348Z,2.60
2018-08-06T06:31:59.385Z,2.50
2018-08-06T06:32:59.363Z,2.40
2018-08-06T06:33:59.363Z,2.50
2018-08-06T06:34:59.384Z,2.30
2018-08-06T06:35:59.397Z,2.50
2018-08-06T06:36:59.483Z,2.40
2018-08-06T06:37:59.407Z,2.40
2018-08-06T06:38:59.435Z,2.90
2018-08-06T06:39:59.424Z,2.30
2018-08-06T06:40:59.447Z,2.60
2018-08-06T06:42:00.301Z,3.10
2018-08-06T06:42:59.457Z,2.40
2018-08-06T06:43:59.466Z,2.60
2018-08-06T06:44:59.478Z,2.90
2018-08-06T06:45:59.480Z,2.30
2018-08-06T06:46:59.496Z,2.60
2018-08-06T06:47:59.517Z,3.10
2018-08-06T06:48:59.577Z,3.10
2018-08-06T06:49:59.525Z,2.80
2018-08-06T06:50:59.536Z,2.40
2018-08-06T06:51:59.640Z,2.90
2018-08-06T06:52:59.546Z,2.80
2018-08-06T06:53:59.560Z,2.80
2018-08-06T06:54:59.576Z,2.40
2018-08-06T06:55:59.583Z,2.60
2018-08-06T06:56:59.593Z,2.60
2018-08-06T06:57:59.601Z,2.20
2018-08-06T06:58:59.615Z,2.60
2018-08-06T06:59:59.660Z,2.40
2018-08-06T07:00:59.633Z,2.30
2018-08-06T07:02:00.321Z,2.60
2018-08-06T07:02:59.655Z,2.10
2018-08-06T07:03:59.682Z,2.50
2018-08-06T07:04:59.681Z,2.20
2018-08-06T07:05:59.718Z,2.70
2018-08-06T07:06:59.712Z,2.60
2018-08-06T07:07:59.725Z,2.70
2018-08-06T07:08:59.737Z,3.00
2018-08-06T07:09:59.738Z,2.50
2018-08-06T07:10:59.734Z,2.50
2018-08-06T07:12:00.325Z,2.50
2018-08-06T07:12:59.773Z,2.10
2018-08-06T07:13:59.838Z,2.10
2018-08-06T07:14:59.803Z,2.60
2018-08-06T07:15:59.805Z,2.50
2018-08-06T07:16:59.822Z,2.30
2018-08-06T07:18:00.348Z,2.60
2018-08-06T07:18:59.900Z,2.90
2018-08-06T07:19:59.908Z,2.50
2018-08-06T07:20:59.868Z,2.50
2018-08-06T07:21:59.878Z,2.40
2018-08-06T07:22:59.901Z,2.10
2018-08-06T07:23:59.910Z,2.20
2018-08-06T07:24:59.976Z,2.20
2018-08-06T07:25:59.979Z,2.30
2018-08-06T07:26:59.950Z,2.30
2018-08-06T07:27:59.972Z,2.50
2018-08-06T07:28:59.968Z,2.20
2018-08-06T07:30:00.006Z,2.00
2018-08-06T07:30:59.998Z,2.20
2018-08-06T07:32:00.042Z,2.10
2018-08-06T07:33:00.019Z,2.20
2018-08-06T07:34:00.060Z,2.10
2018-08-06T07:35:00.085Z,1.90
2018-08-06T07:36:00.065Z,2.20
2018-08-06T07:37:00.086Z,2.10
2018-08-06T07:38:00.099Z,2.20
2018-08-06T07:39:00.123Z,2.10
2018-08-06T07:40:00.150Z,2.20
2018-08-06T07:41:00.138Z,2.30
2018-08-06T07:42:00.140Z,2.00
2018-08-06T07:43:00.175Z,2.30
2018-08-06T07:44:00.231Z,2.20
2018-08-06T07:45:00.187Z,2.10
2018-08-06T07:46:00.208Z,2.10
2018-08-06T07:47:00.233Z,1.90
2018-08-06T07:48:00.300Z,2.10
2018-08-06T07:49:00.256Z,1.90
2018-08-06T07:50:00.868Z,2.70
2018-08-06T07:51:00.306Z,2.10
2018-08-06T07:52:00.320Z,1.90
2018-08-06T07:53:00.310Z,1.90
2018-08-06T07:54:00.362Z,1.90
2018-08-06T07:55:00.344Z,1.90
2018-08-06T07:56:00.343Z,2.00
2018-08-06T07:57:00.407Z,2.00
2018-08-06T07:58:00.399Z,1.90
2018-08-06T07:59:00.397Z,2.30
2018-08-06T08:00:01.373Z,2.10
2018-08-06T08:01:00.422Z,1.70
2018-08-06T08:02:00.470Z,1.80
2018-08-06T08:03:00.604Z,2.00
2018-08-06T08:04:00.473Z,1.90
2018-08-06T08:05:00.490Z,2.00
2018-08-06T08:06:00.508Z,1.80
2018-08-06T08:07:00.529Z,2.10
2018-08-06T08:08:00.621Z,1.90
2018-08-06T08:09:00.548Z,2.00
2018-08-06T08:10:00.576Z,1.80
2018-08-06T08:11:00.591Z,2.00
2018-08-06T08:12:00.678Z,1.90
2018-08-06T08:13:00.614Z,1.70
2018-08-06T08:14:00.654Z,1.90
2018-08-06T08:15:00.688Z,1.70
2018-08-06T08:16:00.662Z,2.10
2018-08-06T08:17:00.682Z,1.90
2018-08-06T08:18:01.394Z,1.90
2018-08-06T08:19:00.712Z,1.80
2018-08-06T08:20:00.806Z,1.90
2018-08-06T08:21:00.794Z,2.00
2018-08-06T08:22:00.758Z,1.90
2018-08-06T08:23:00.784Z,1.60
2018-08-06T08:24:00.800Z,1.80
2018-08-06T08:25:00.869Z,2.20
2018-08-06T08:26:00.824Z,1.90
2018-08-06T08:27:01.390Z,2.00
2018-08-06T08:28:01.406Z,2.10
2018-08-06T08:29:00.892Z,1.80
2018-08-06T08:30:00.886Z,1.70
2018-08-06T08:31:01.894Z,1.90
2018-08-06T08:32:00.934Z,2.20
2018-08-06T08:33:00.946Z,1.80
2018-08-06T08:34:01.014Z,1.60
2018-08-06T08:35:00.988Z,1.90
2018-08-06T08:36:00.991Z,2.00
2018-08-06T08:37:01.038Z,1.70
2018-08-06T08:38:01.908Z,1.80
2018-08-06T08:39:01.908Z,1.90
2018-08-06T08:40:01.092Z,1.70
2018-08-06T08:41:01.116Z,1.80
2018-08-06T08:42:01.104Z,1.90
2018-08-06T08:43:01.143Z,1.80
2018-08-06T08:44:01.158Z,1.90
2018-08-06T08:45:01.167Z,1.60
2018-08-06T08:46:01.191Z,1.80
2018-08-06T08:47:01.204Z,1.60
2018-08-06T08:48:01.215Z,1.80
2018-08-06T08:49:01.298Z,1.60
2018-08-06T08:50:01.302Z,1.90
2018-08-06T08:51:01.270Z,2.20
2018-08-06T08:52:01.348Z,1.90
2018-08-06T08:53:01.481Z,2.10
2018-08-06T08:54:01.330Z,1.90
2018-08-06T08:55:01.344Z,1.50
2018-08-06T08:56:01.398Z,1.70
2018-08-06T08:57:01.397Z,1.70
2018-08-06T08:58:01.396Z,1.70
2018-08-06T08:59:01.433Z,1.70
2018-08-06T09:00:01.435Z,1.90
2018-08-06T09:01:01.505Z,2.10
2018-08-06T09:02:02.464Z,1.70
2018-08-06T09:03:02.423Z,2.10
2018-08-06T09:04:01.529Z,2.30
2018-08-06T09:05:02.418Z,1.80
2018-08-06T09:06:01.574Z,1.50
2018-08-06T09:07:01.565Z,1.60
2018-08-06T09:08:01.592Z,1.70
2018-08-06T09:09:01.594Z,1.70
2018-08-06T09:10:01.625Z,1.60
2018-08-06T09:11:01.644Z,1.60
2018-08-06T09:12:01.660Z,1.90
2018-08-06T09:13:01.759Z,1.60
2018-08-06T09:14:01.769Z,1.80
2018-08-06T09:15:01.738Z,1.60
2018-08-06T09:16:02.421Z,1.70
2018-08-06T09:17:01.756Z,1.60
2018-08-06T09:18:01.782Z,1.70
2018-08-06T09:19:01.804Z,1.70
2018-08-06T09:20:01.836Z,1.60
2018-08-06T09:21:01.860Z,1.60
2018-08-06T09:22:01.872Z,1.70
2018-08-06T09:23:02.426Z,1.70
2018-08-06T09:24:01.892Z,1.90
2018-08-06T09:25:01.912Z,1.90
2018-08-06T09:26:01.933Z,1.60
2018-08-06T09:27:01.951Z,1.60
2018-08-06T09:28:02.931Z,1.90
2018-08-06T09:29:02.028Z,1.80
2018-08-06T09:30:02.038Z,1.60
2018-08-06T09:31:02.932Z,1.50
2018-08-06T09:32:02.060Z,1.70
2018-08-06T09:33:02.095Z,1.80
2018-08-06T09:34:02.172Z,1.70
2018-08-06T09:35:02.126Z,1.70
2018-08-06T09:36:02.135Z,1.90
2018-08-06T09:37:02.151Z,1.50
2018-08-06T09:38:02.930Z,2.60
2018-08-06T09:39:02.203Z,1.80
2018-08-06T09:40:02.214Z,1.40
2018-08-06T09:41:02.229Z,1.70
2018-08-06T09:42:02.255Z,1.40
2018-08-06T09:43:02.276Z,1.70
2018-08-06T09:44:02.286Z,1.60
2018-08-06T09:45:02.323Z,1.40
2018-08-06T09:46:02.340Z,1.90
2018-08-06T09:47:02.360Z,1.60
2018-08-06T09:48:02.569Z,1.60
2018-08-06T09:49:02.412Z,1.80
2018-08-06T09:50:02.446Z,1.50
2018-08-06T09:51:02.945Z,1.60
2018-08-06T09:52:02.462Z,1.60
2018-08-06T09:53:02.495Z,1.50
2018-08-06T09:54:02.508Z,1.80
2018-08-06T09:55:02.526Z,1.80
2018-08-06T09:56:02.548Z,1.40
2018-08-06T09:57:02.574Z,1.60
2018-08-06T09:58:02.630Z,1.70
2018-08-06T09:59:02.625Z,1.50
2018-08-06T10:00:02.653Z,2.00
2018-08-06T10:01:02.714Z,1.80
2018-08-06T10:02:02.690Z,1.70
2018-08-06T10:03:02.704Z,1.90
2018-08-06T10:04:02.729Z,1.50
2018-08-06T10:05:02.754Z,2.00
2018-08-06T10:06:02.864Z,2.10
2018-08-06T10:07:02.794Z,2.10
2018-08-06T10:08:02.873Z,2.00
2018-08-06T10:09:02.855Z,1.90
2018-08-06T10:10:02.864Z,1.80
2018-08-06T10:11:02.884Z,1.50
2018-08-06T10:12:02.962Z,1.90
2018-08-06T10:13:04.539Z,1.80
2018-08-06T10:14:02.955Z,1.90
2018-08-06T10:15:02.980Z,2.10
2018-08-06T10:16:02.996Z,1.80
2018-08-06T10:17:03.025Z,1.90
2018-08-06T10:18:03.048Z,2.80
2018-08-06T10:19:03.187Z,2.40
2018-08-06T10:20:03.150Z,1.70
2018-08-06T10:21:03.105Z,1.70
2018-08-06T10:22:03.145Z,1.90
2018-08-06T10:23:03.170Z,1.50
2018-08-06T10:24:03.199Z,1.50
2018-08-06T10:25:03.197Z,1.70
2018-08-06T10:26:03.223Z,2.00
2018-08-06T10:27:03.243Z,1.70
2018-08-06T10:28:03.282Z,1.90
2018-08-06T10:29:03.307Z,2.00
2018-08-06T10:30:03.428Z,2.20
2018-08-06T10:31:03.350Z,2.10
2018-08-06T10:32:03.367Z,1.90
2018-08-06T10:33:03.375Z,2.10
2018-08-06T10:35:35.589Z,1.80
2018-08-06T10:36:35.560Z,2.00
2018-08-06T10:37:35.592Z,1.90
2018-08-06T10:38:35.627Z,1.70
2018-08-06T10:39:35.639Z,1.60
2018-08-06T10:40:35.664Z,1.80
2018-08-06T10:41:35.673Z,1.80
2018-08-06T10:42:36.534Z,1.60
2018-08-06T10:43:35.779Z,2.00
2018-08-06T10:44:35.761Z,1.70
2018-08-06T10:45:35.770Z,1.90
2018-08-06T10:46:35.802Z,2.00
2018-08-06T10:47:35.825Z,1.90
2018-08-06T10:48:37.670Z,1.60
2018-08-06T10:49:35.873Z,1.60
2018-08-06T10:50:35.874Z,1.70
2018-08-06T10:51:35.910Z,1.60
2018-08-06T10:52:35.970Z,2.00
2018-08-06T10:53:35.961Z,1.80
2018-08-06T10:54:35.999Z,1.80
2018-08-06T10:55:36.158Z,1.70
2018-08-06T10:56:36.020Z,2.00
2018-08-06T10:57:36.094Z,1.70
2018-08-06T10:58:36.076Z,1.80
2018-08-06T10:59:36.151Z,1.80
2018-08-06T11:00:36.099Z,2.10
2018-08-06T11:01:36.128Z,1.70
2018-08-06T11:02:36.151Z,2.00
2018-08-06T11:03:36.163Z,2.20
2018-08-06T11:04:36.180Z,1.80
2018-08-06T11:05:36.272Z,1.60
2018-08-06T11:06:36.313Z,1.90
2018-08-06T11:07:36.249Z,1.80
2018-08-06T11:08:36.269Z,1.80
2018-08-06T11:09:36.291Z,1.80
2018-08-06T11:10:36.293Z,1.70
2018-08-06T11:11:36.321Z,1.90
2018-08-06T11:12:36.325Z,1.70
2018-08-06T11:13:36.351Z,1.90
2018-08-06T11:14:36.371Z,1.80
2018-08-06T11:15:36.383Z,1.80
2018-08-06T11:16:36.395Z,2.20
2018-08-06T11:17:36.403Z,2.10
2018-08-06T11:18:36.427Z,2.20
2018-08-06T11:19:36.438Z,2.00
2018-08-06T11:20:36.559Z,2.10
2018-08-06T11:21:36.469Z,1.90
2018-08-06T11:22:36.620Z,2.20
2018-08-06T11:23:36.512Z,2.00
2018-08-06T11:24:36.559Z,2.00
2018-08-06T11:25:36.560Z,2.10
2018-08-06T11:26:36.540Z,2.10
2018-08-06T11:27:36.562Z,2.00
2018-08-06T11:28:36.608Z,2.20
2018-08-06T11:29:36.578Z,2.10
2018-08-06T11:30:36.597Z,2.10
2018-08-06T11:31:36.613Z,2.40
2018-08-06T11:32:37.553Z,2.70
2018-08-06T11:33:36.630Z,2.50
2018-08-06T11:34:36.653Z,2.50
2018-08-06T11:35:36.677Z,2.70
2018-08-06T11:36:36.713Z,2.50
2018-08-06T11:37:36.683Z,2.40
2018-08-06T11:38:36.712Z,2.40
2018-08-06T11:39:37.553Z,1.80
2018-08-06T11:40:36.721Z,2.30
2018-08-06T11:41:36.764Z,2.00
2018-08-06T11:42:36.751Z,1.90
2018-08-06T11:43:36.757Z,2.10
2018-08-06T11:44:36.763Z,2.20
2018-08-06T11:45:36.786Z,2.20
2018-08-06T11:46:36.798Z,2.10
2018-08-06T11:47:36.831Z,2.30
2018-08-06T11:48:36.819Z,2.50
2018-08-06T11:49:36.824Z,2.30
2018-08-06T11:50:36.831Z,1.70
2018-08-06T11:51:36.848Z,2.20
2018-08-06T11:52:36.868Z,2.00
2018-08-06T11:53:36.872Z,2.30
2018-08-06T11:54:36.881Z,2.00
2018-08-06T11:55:36.907Z,2.10
2018-08-06T11:56:36.934Z,2.20
2018-08-06T11:57:37.037Z,2.10
2018-08-06T11:58:36.929Z,2.10
2018-08-06T11:59:36.948Z,2.20
2018-08-06T12:00:38.640Z,2.30
2018-08-06T12:01:36.971Z,2.20
2018-08-06T12:02:36.969Z,2.20
2018-08-06T12:03:36.986Z,2.00
2018-08-06T12:04:36.995Z,2.30
2018-08-06T12:05:37.002Z,2.30
2018-08-06T12:06:37.404Z,2.10
2018-08-06T12:07:37.059Z,2.30
2018-08-06T12:08:37.055Z,2.30
2018-08-06T12:09:37.151Z,2.70
2018-08-06T12:10:37.075Z,2.10
2018-08-06T12:11:37.057Z,2.10
2018-08-06T12:12:37.068Z,2.10
2018-08-06T12:13:37.179Z,2.40
2018-08-06T12:14:37.095Z,2.10
2018-08-06T12:15:37.103Z,2.20
2018-08-06T12:16:37.115Z,2.30
2018-08-06T12:17:37.123Z,2.10
2018-08-06T12:18:37.138Z,2.10
2018-08-06T12:19:37.149Z,2.20
2018-08-06T12:20:37.245Z,2.10
2018-08-06T12:21:37.168Z,2.60
2018-08-06T12:22:37.178Z,2.50
2018-08-06T12:23:37.192Z,2.40
2018-08-06T12:24:37.219Z,2.40
2018-08-06T12:25:37.220Z,2.20
2018-08-06T12:26:37.231Z,2.30
2018-08-06T12:27:37.225Z,2.20
2018-08-06T12:28:37.245Z,2.30
2018-08-06T12:29:37.256Z,2.20
2018-08-06T12:30:37.323Z,1.90
2018-08-06T12:31:37.267Z,2.10
2018-08-06T12:32:37.299Z,2.30
2018-08-06T12:33:37.300Z,2.20
2018-08-06T12:34:37.303Z,2.50
2018-08-06T12:35:37.310Z,2.20
2018-08-06T12:36:37.328Z,2.30
2018-08-06T12:37:37.356Z,2.60
2018-08-06T12:38:37.364Z,2.60
2018-08-06T12:39:37.381Z,2.00
2018-08-06T12:40:37.350Z,2.40
2018-08-06T12:41:37.392Z,2.40
2018-08-06T12:42:37.439Z,2.40
2018-08-06T12:43:37.425Z,2.20
2018-08-06T12:44:37.434Z,2.40
2018-08-06T12:45:37.481Z,2.20
2018-08-06T12:46:37.427Z,2.60
2018-08-06T12:47:37.459Z,2.90
2018-08-06T12:48:37.432Z,2.40
2018-08-06T12:49:37.478Z,2.60
2018-08-06T12:50:37.467Z,2.50
2018-08-06T12:51:37.521Z,2.40
2018-08-06T12:52:37.495Z,2.10
2018-08-06T12:53:37.490Z,2.30
2018-08-06T12:54:37.493Z,2.10
2018-08-06T12:55:37.501Z,2.20
2018-08-06T12:56:37.523Z,2.00
2018-08-06T12:57:37.523Z,2.10
2018-08-06T12:58:37.544Z,2.30
2018-08-06T12:59:37.538Z,2.20
2018-08-06T13:00:37.563Z,2.10
2018-08-06T13:01:37.598Z,2.50
2018-08-06T13:02:37.590Z,2.40
2018-08-06T13:03:37.578Z,2.10
2018-08-06T13:04:37.578Z,2.10
2018-08-06T13:05:37.592Z,2.10
2018-08-06T13:06:37.659Z,2.40
2018-08-06T13:07:37.652Z,2.10
2018-08-06T13:09:03.139Z,2.20
2018-08-06T13:09:44.337Z,2.00
2018-08-06T13:10:37.646Z,2.40
2018-08-06T13:11:37.776Z,6.00
2018-08-06T13:12:37.680Z,2.80
2018-08-06T13:13:37.686Z,2.40
2018-08-06T13:14:37.679Z,2.50
2018-08-06T13:15:37.697Z,4.00
2018-08-06T13:16:38.616Z,2.60
2018-08-06T13:17:37.704Z,2.30
2018-08-06T13:18:37.716Z,2.40
2018-08-06T13:19:37.749Z,2.40
2018-08-06T13:20:37.741Z,2.20